sensor_id;sensor_type;location;lat;lon;timestamp;temperature;humidity
75738;DHT22;64356;45.638;13.764;2023-06-14T00:01:54;25.10;47.40
75738;DHT22;64356;45.638;13.764;2023-06-14T00:04:21;25.10;47.30
75738;DHT22;64356;45.638;13.764;2023-06-14T00:06:47;25.10;47.30
75738;DHT22;64356;45.638;13.764;2023-06-14T00:09:14;25.10;47.30
75738;DHT22;64356;45.638;13.764;2023-06-14T00:11:41;25.10;47.30
75738;DHT22;64356;45.638;13.764;2023-06-14T00:14:07;25.00;47.30
75738;DHT22;64356;45.638;13.764;2023-06-14T00:16:33;25.00;47.40
75738;DHT22;64356;45.638;13.764;2023-06-14T00:19:01;25.00;47.40
75738;DHT22;64356;45.638;13.764;2023-06-14T00:21:29;25.00;47.40
75738;DHT22;64356;45.638;13.764;2023-06-14T00:23:55;25.00;47.40
75738;DHT22;64356;45.638;13.764;2023-06-14T00:26:21;25.00;47.30
75738;DHT22;64356;45.638;13.764;2023-06-14T00:28:47;25.00;47.30
75738;DHT22;64356;45.638;13.764;2023-06-14T00:31:12;25.10;47.30
75738;DHT22;64356;45.638;13.764;2023-06-14T00:33:38;25.10;47.30
75738;DHT22;64356;45.638;13.764;2023-06-14T00:36:04;25.10;47.30
75738;DHT22;64356;45.638;13.764;2023-06-14T00:38:30;25.10;47.30
75738;DHT22;64356;45.638;13.764;2023-06-14T00:40:55;25.00;47.30
75738;DHT22;64356;45.638;13.764;2023-06-14T00:43:21;25.10;47.40
75738;DHT22;64356;45.638;13.764;2023-06-14T00:45:47;25.00;47.40
75738;DHT22;64356;45.638;13.764;2023-06-14T00:48:15;25.00;47.30
75738;DHT22;64356;45.638;13.764;2023-06-14T00:50:41;25.00;47.30
75738;DHT22;64356;45.638;13.764;2023-06-14T00:53:07;25.00;47.80
75738;DHT22;64356;45.638;13.764;2023-06-14T00:55:33;25.00;47.20
75738;DHT22;64356;45.638;13.764;2023-06-14T00:57:59;25.00;47.30
75738;DHT22;64356;45.638;13.764;2023-06-14T01:00:25;25.00;47.30
75738;DHT22;64356;45.638;13.764;2023-06-14T01:02:51;25.00;47.30
75738;DHT22;64356;45.638;13.764;2023-06-14T01:05:17;25.00;47.10
75738;DHT22;64356;45.638;13.764;2023-06-14T01:08:39;25.00;47.20
75738;DHT22;64356;45.638;13.764;2023-06-14T01:10:59;25.00;47.10
75738;DHT22;64356;45.638;13.764;2023-06-14T01:13:34;25.00;47.10
75738;DHT22;64356;45.638;13.764;2023-06-14T01:16:00;25.00;47.10
75738;DHT22;64356;45.638;13.764;2023-06-14T01:18:28;25.00;47.10
75738;DHT22;64356;45.638;13.764;2023-06-14T01:20:55;25.00;47.10
75738;DHT22;64356;45.638;13.764;2023-06-14T01:23:22;25.00;47.20
75738;DHT22;64356;45.638;13.764;2023-06-14T01:25:49;25.00;47.30
75738;DHT22;64356;45.638;13.764;2023-06-14T01:28:19;25.00;47.30
75738;DHT22;64356;45.638;13.764;2023-06-14T01:30:48;25.00;47.30
75738;DHT22;64356;45.638;13.764;2023-06-14T01:33:17;25.00;47.30
75738;DHT22;64356;45.638;13.764;2023-06-14T01:35:46;25.00;47.30
75738;DHT22;64356;45.638;13.764;2023-06-14T01:38:13;25.00;47.30
75738;DHT22;64356;45.638;13.764;2023-06-14T01:40:40;25.00;47.30
75738;DHT22;64356;45.638;13.764;2023-06-14T01:43:07;25.00;47.40
75738;DHT22;64356;45.638;13.764;2023-06-14T01:45:34;25.00;47.40
75738;DHT22;64356;45.638;13.764;2023-06-14T01:48:01;25.00;47.30
75738;DHT22;64356;45.638;13.764;2023-06-14T01:50:31;25.00;47.40
75738;DHT22;64356;45.638;13.764;2023-06-14T01:52:57;24.90;47.30
75738;DHT22;64356;45.638;13.764;2023-06-14T01:55:23;25.00;47.40
75738;DHT22;64356;45.638;13.764;2023-06-14T01:57:53;25.00;47.40
75738;DHT22;64356;45.638;13.764;2023-06-14T02:00:20;24.90;47.30
75738;DHT22;64356;45.638;13.764;2023-06-14T02:02:46;24.90;47.30
75738;DHT22;64356;45.638;13.764;2023-06-14T02:05:13;25.00;47.90
75738;DHT22;64356;45.638;13.764;2023-06-14T02:07:38;24.90;47.30
75738;DHT22;64356;45.638;13.764;2023-06-14T02:10:06;24.90;47.30
75738;DHT22;64356;45.638;13.764;2023-06-14T02:12:31;24.90;47.30
75738;DHT22;64356;45.638;13.764;2023-06-14T02:14:57;24.90;47.30
75738;DHT22;64356;45.638;13.764;2023-06-14T02:17:23;24.90;47.30
75738;DHT22;64356;45.638;13.764;2023-06-14T02:19:49;24.90;47.30
75738;DHT22;64356;45.638;13.764;2023-06-14T02:22:16;24.90;47.30
75738;DHT22;64356;45.638;13.764;2023-06-14T02:24:42;24.90;47.30
75738;DHT22;64356;45.638;13.764;2023-06-14T02:27:08;24.90;47.30
75738;DHT22;64356;45.638;13.764;2023-06-14T02:29:36;24.90;47.30
75738;DHT22;64356;45.638;13.764;2023-06-14T02:32:02;24.90;47.30
75738;DHT22;64356;45.638;13.764;2023-06-14T02:34:27;24.90;47.30
75738;DHT22;64356;45.638;13.764;2023-06-14T02:36:53;24.90;47.20
75738;DHT22;64356;45.638;13.764;2023-06-14T02:39:20;24.90;47.30
75738;DHT22;64356;45.638;13.764;2023-06-14T02:41:49;24.90;47.20
75738;DHT22;64356;45.638;13.764;2023-06-14T02:44:15;24.80;47.20
75738;DHT22;64356;45.638;13.764;2023-06-14T02:46:43;24.90;47.30
75738;DHT22;64356;45.638;13.764;2023-06-14T02:49:10;24.90;47.20
75738;DHT22;64356;45.638;13.764;2023-06-14T02:51:35;24.90;47.30
75738;DHT22;64356;45.638;13.764;2023-06-14T02:54:01;24.90;47.30
75738;DHT22;64356;45.638;13.764;2023-06-14T02:56:27;24.80;47.30
75738;DHT22;64356;45.638;13.764;2023-06-14T02:58:53;24.90;47.30
75738;DHT22;64356;45.638;13.764;2023-06-14T03:01:19;24.90;47.40
75738;DHT22;64356;45.638;13.764;2023-06-14T03:03:46;24.90;47.50
75738;DHT22;64356;45.638;13.764;2023-06-14T03:06:12;24.80;47.40
75738;DHT22;64356;45.638;13.764;2023-06-14T03:08:40;24.90;47.40
75738;DHT22;64356;45.638;13.764;2023-06-14T03:11:07;24.90;47.50
75738;DHT22;64356;45.638;13.764;2023-06-14T03:13:34;24.90;47.40
75738;DHT22;64356;45.638;13.764;2023-06-14T03:16:00;24.90;47.40
75738;DHT22;64356;45.638;13.764;2023-06-14T03:18:29;24.90;47.40
75738;DHT22;64356;45.638;13.764;2023-06-14T03:20:56;24.90;47.20
75738;DHT22;64356;45.638;13.764;2023-06-14T03:23:24;25.00;47.10
75738;DHT22;64356;45.638;13.764;2023-06-14T03:25:51;25.00;47.00
75738;DHT22;64356;45.638;13.764;2023-06-14T03:28:17;25.00;47.00
75738;DHT22;64356;45.638;13.764;2023-06-14T03:30:43;25.00;47.00
75738;DHT22;64356;45.638;13.764;2023-06-14T03:33:08;25.00;46.90
75738;DHT22;64356;45.638;13.764;2023-06-14T03:35:34;24.90;46.80
75738;DHT22;64356;45.638;13.764;2023-06-14T03:38:00;24.90;46.80
75738;DHT22;64356;45.638;13.764;2023-06-14T03:40:28;24.90;46.80
75738;DHT22;64356;45.638;13.764;2023-06-14T03:42:54;24.90;46.80
75738;DHT22;64356;45.638;13.764;2023-06-14T03:45:21;24.90;46.90
75738;DHT22;64356;45.638;13.764;2023-06-14T03:47:46;24.90;47.00
75738;DHT22;64356;45.638;13.764;2023-06-14T03:50:12;24.90;47.00
75738;DHT22;64356;45.638;13.764;2023-06-14T03:52:38;24.90;47.00
75738;DHT22;64356;45.638;13.764;2023-06-14T03:55:04;24.90;47.00
75738;DHT22;64356;45.638;13.764;2023-06-14T03:57:30;24.80;47.00
75738;DHT22;64356;45.638;13.764;2023-06-14T03:59:56;24.80;47.00
75738;DHT22;64356;45.638;13.764;2023-06-14T04:02:22;24.80;47.00
75738;DHT22;64356;45.638;13.764;2023-06-14T04:04:48;24.90;47.10
75738;DHT22;64356;45.638;13.764;2023-06-14T04:07:14;24.90;47.10
75738;DHT22;64356;45.638;13.764;2023-06-14T04:09:41;24.90;47.10
75738;DHT22;64356;45.638;13.764;2023-06-14T04:12:07;24.90;47.10
75738;DHT22;64356;45.638;13.764;2023-06-14T04:14:37;24.90;47.20
75738;DHT22;64356;45.638;13.764;2023-06-14T04:17:03;24.90;47.20
75738;DHT22;64356;45.638;13.764;2023-06-14T04:19:29;24.90;47.10
75738;DHT22;64356;45.638;13.764;2023-06-14T04:21:55;24.90;47.10
75738;DHT22;64356;45.638;13.764;2023-06-14T04:24:20;24.90;47.00
75738;DHT22;64356;45.638;13.764;2023-06-14T04:26:48;24.90;46.90
75738;DHT22;64356;45.638;13.764;2023-06-14T04:29:15;24.90;46.90
75738;DHT22;64356;45.638;13.764;2023-06-14T04:31:45;24.90;47.50
75738;DHT22;64356;45.638;13.764;2023-06-14T04:34:12;24.90;47.60
75738;DHT22;64356;45.638;13.764;2023-06-14T04:36:42;24.90;47.20
75738;DHT22;64356;45.638;13.764;2023-06-14T04:39:15;24.90;47.20
75738;DHT22;64356;45.638;13.764;2023-06-14T04:41:43;24.90;47.10
75738;DHT22;64356;45.638;13.764;2023-06-14T04:44:10;24.90;47.20
75738;DHT22;64356;45.638;13.764;2023-06-14T04:46:36;24.90;47.20
75738;DHT22;64356;45.638;13.764;2023-06-14T04:49:17;24.90;47.20
75738;DHT22;64356;45.638;13.764;2023-06-14T04:51:43;24.90;47.20
75738;DHT22;64356;45.638;13.764;2023-06-14T04:54:10;24.90;47.40
75738;DHT22;64356;45.638;13.764;2023-06-14T04:56:39;24.90;47.20
75738;DHT22;64356;45.638;13.764;2023-06-14T04:59:05;24.90;47.30
75738;DHT22;64356;45.638;13.764;2023-06-14T05:01:31;24.90;47.20
75738;DHT22;64356;45.638;13.764;2023-06-14T05:03:57;24.90;47.30
75738;DHT22;64356;45.638;13.764;2023-06-14T05:06:23;24.90;47.30
75738;DHT22;64356;45.638;13.764;2023-06-14T05:08:49;24.90;47.30
75738;DHT22;64356;45.638;13.764;2023-06-14T05:11:15;24.90;47.40
75738;DHT22;64356;45.638;13.764;2023-06-14T05:13:42;24.90;47.30
75738;DHT22;64356;45.638;13.764;2023-06-14T05:16:10;24.90;47.30
75738;DHT22;64356;45.638;13.764;2023-06-14T05:18:37;24.90;47.30
75738;DHT22;64356;45.638;13.764;2023-06-14T05:21:04;24.90;47.40
75738;DHT22;64356;45.638;13.764;2023-06-14T05:23:32;24.90;47.40
75738;DHT22;64356;45.638;13.764;2023-06-14T05:25:58;24.90;47.30
75738;DHT22;64356;45.638;13.764;2023-06-14T05:28:24;24.90;47.30
75738;DHT22;64356;45.638;13.764;2023-06-14T05:30:50;24.90;47.60
75738;DHT22;64356;45.638;13.764;2023-06-14T05:33:16;24.80;47.10
75738;DHT22;64356;45.638;13.764;2023-06-14T05:35:42;24.70;47.00
75738;DHT22;64356;45.638;13.764;2023-06-14T05:38:08;24.50;47.10
75738;DHT22;64356;45.638;13.764;2023-06-14T05:40:34;24.40;47.20
75738;DHT22;64356;45.638;13.764;2023-06-14T05:42:59;24.40;47.60
75738;DHT22;64356;45.638;13.764;2023-06-14T05:45:25;24.40;47.90
75738;DHT22;64356;45.638;13.764;2023-06-14T05:47:51;24.40;48.10
75738;DHT22;64356;45.638;13.764;2023-06-14T05:50:17;24.40;48.40
75738;DHT22;64356;45.638;13.764;2023-06-14T05:52:43;24.40;48.20
75738;DHT22;64356;45.638;13.764;2023-06-14T05:55:09;24.40;48.20
75738;DHT22;64356;45.638;13.764;2023-06-14T05:57:37;24.40;48.30
75738;DHT22;64356;45.638;13.764;2023-06-14T06:00:03;24.40;48.70
75738;DHT22;64356;45.638;13.764;2023-06-14T06:02:41;24.40;48.50
75738;DHT22;64356;45.638;13.764;2023-06-14T06:05:09;24.40;48.50
75738;DHT22;64356;45.638;13.764;2023-06-14T06:07:36;24.30;48.40
75738;DHT22;64356;45.638;13.764;2023-06-14T06:10:03;24.30;48.30
75738;DHT22;64356;45.638;13.764;2023-06-14T06:12:30;24.40;48.90
75738;DHT22;64356;45.638;13.764;2023-06-14T06:14:56;24.40;48.50
75738;DHT22;64356;45.638;13.764;2023-06-14T06:17:22;24.40;48.60
75738;DHT22;64356;45.638;13.764;2023-06-14T06:19:48;24.40;48.60
75738;DHT22;64356;45.638;13.764;2023-06-14T06:22:13;24.50;48.30
75738;DHT22;64356;45.638;13.764;2023-06-14T06:24:39;24.50;47.90
75738;DHT22;64356;45.638;13.764;2023-06-14T06:27:05;24.60;47.70
75738;DHT22;64356;45.638;13.764;2023-06-14T06:29:33;24.60;48.00
75738;DHT22;64356;45.638;13.764;2023-06-14T06:31:59;24.60;47.60
75738;DHT22;64356;45.638;13.764;2023-06-14T06:34:25;24.60;47.50
75738;DHT22;64356;45.638;13.764;2023-06-14T06:36:51;24.60;47.60
75738;DHT22;64356;45.638;13.764;2023-06-14T06:39:16;24.70;47.70
75738;DHT22;64356;45.638;13.764;2023-06-14T06:41:42;24.60;47.80
75738;DHT22;64356;45.638;13.764;2023-06-14T06:44:08;24.70;48.10
75738;DHT22;64356;45.638;13.764;2023-06-14T06:46:36;24.70;48.10
75738;DHT22;64356;45.638;13.764;2023-06-14T06:49:06;24.80;47.90
75738;DHT22;64356;45.638;13.764;2023-06-14T06:51:31;24.80;47.90
75738;DHT22;64356;45.638;13.764;2023-06-14T06:53:57;24.80;47.90
75738;DHT22;64356;45.638;13.764;2023-06-14T06:56:23;24.80;48.20
75738;DHT22;64356;45.638;13.764;2023-06-14T06:58:50;24.80;48.10
75738;DHT22;64356;45.638;13.764;2023-06-14T07:01:16;24.80;48.20
75738;DHT22;64356;45.638;13.764;2023-06-14T07:03:43;24.90;48.40
75738;DHT22;64356;45.638;13.764;2023-06-14T07:06:08;24.90;48.50
75738;DHT22;64356;45.638;13.764;2023-06-14T07:08:34;24.90;49.00
75738;DHT22;64356;45.638;13.764;2023-06-14T07:11:01;25.00;48.40
75738;DHT22;64356;45.638;13.764;2023-06-14T07:13:27;25.00;48.50
75738;DHT22;64356;45.638;13.764;2023-06-14T07:16:00;25.00;48.60
75738;DHT22;64356;45.638;13.764;2023-06-14T07:18:26;25.00;48.50
75738;DHT22;64356;45.638;13.764;2023-06-14T07:20:55;25.00;48.60
75738;DHT22;64356;45.638;13.764;2023-06-14T07:23:22;25.00;48.50
75738;DHT22;64356;45.638;13.764;2023-06-14T07:25:48;25.10;48.50
75738;DHT22;64356;45.638;13.764;2023-06-14T07:28:15;25.10;47.90
75738;DHT22;64356;45.638;13.764;2023-06-14T07:30:41;25.10;48.10
75738;DHT22;64356;45.638;13.764;2023-06-14T07:33:07;25.10;48.30
75738;DHT22;64356;45.638;13.764;2023-06-14T07:35:33;25.20;48.20
75738;DHT22;64356;45.638;13.764;2023-06-14T07:37:59;25.20;47.60
75738;DHT22;64356;45.638;13.764;2023-06-14T07:40:25;25.10;47.60
75738;DHT22;64356;45.638;13.764;2023-06-14T07:42:51;25.10;47.20
75738;DHT22;64356;45.638;13.764;2023-06-14T07:45:16;25.20;47.10
75738;DHT22;64356;45.638;13.764;2023-06-14T07:47:42;25.20;46.70
75738;DHT22;64356;45.638;13.764;2023-06-14T07:50:08;25.20;46.10
75738;DHT22;64356;45.638;13.764;2023-06-14T07:52:35;25.20;45.50
75738;DHT22;64356;45.638;13.764;2023-06-14T07:55:00;25.30;44.40
75738;DHT22;64356;45.638;13.764;2023-06-14T07:57:27;25.30;44.20
75738;DHT22;64356;45.638;13.764;2023-06-14T07:59:53;25.30;44.20
75738;DHT22;64356;45.638;13.764;2023-06-14T08:02:18;25.30;43.60
75738;DHT22;64356;45.638;13.764;2023-06-14T08:04:44;25.30;43.60
75738;DHT22;64356;45.638;13.764;2023-06-14T08:07:10;25.40;43.30
75738;DHT22;64356;45.638;13.764;2023-06-14T08:09:36;25.40;43.70
75738;DHT22;64356;45.638;13.764;2023-06-14T08:12:07;25.40;43.90
75738;DHT22;64356;45.638;13.764;2023-06-14T08:14:35;25.40;43.50
75738;DHT22;64356;45.638;13.764;2023-06-14T08:17:01;25.50;43.50
75738;DHT22;64356;45.638;13.764;2023-06-14T08:19:27;25.60;43.50
75738;DHT22;64356;45.638;13.764;2023-06-14T08:21:52;25.60;43.40
75738;DHT22;64356;45.638;13.764;2023-06-14T08:24:23;25.70;43.70
75738;DHT22;64356;45.638;13.764;2023-06-14T08:26:55;25.70;43.80
75738;DHT22;64356;45.638;13.764;2023-06-14T08:29:22;25.80;43.80
75738;DHT22;64356;45.638;13.764;2023-06-14T08:31:48;25.80;43.60
75738;DHT22;64356;45.638;13.764;2023-06-14T08:34:13;25.80;42.60
75738;DHT22;64356;45.638;13.764;2023-06-14T08:36:39;25.70;42.60
75738;DHT22;64356;45.638;13.764;2023-06-14T08:39:05;25.70;43.10
75738;DHT22;64356;45.638;13.764;2023-06-14T08:41:32;25.60;43.40
75738;DHT22;64356;45.638;13.764;2023-06-14T08:43:58;25.70;43.70
75738;DHT22;64356;45.638;13.764;2023-06-14T08:46:26;25.70;44.00
75738;DHT22;64356;45.638;13.764;2023-06-14T08:48:55;25.70;44.70
75738;DHT22;64356;45.638;13.764;2023-06-14T08:51:25;25.80;45.50
75738;DHT22;64356;45.638;13.764;2023-06-14T08:53:55;25.80;45.60
75738;DHT22;64356;45.638;13.764;2023-06-14T08:56:28;25.80;45.70
75738;DHT22;64356;45.638;13.764;2023-06-14T08:58:55;25.90;45.70
75738;DHT22;64356;45.638;13.764;2023-06-14T09:01:22;25.90;45.60
75738;DHT22;64356;45.638;13.764;2023-06-14T09:03:49;25.90;45.40
75738;DHT22;64356;45.638;13.764;2023-06-14T09:06:16;25.90;45.30
75738;DHT22;64356;45.638;13.764;2023-06-14T09:08:46;25.90;45.20
75738;DHT22;64356;45.638;13.764;2023-06-14T09:11:15;25.90;44.80
75738;DHT22;64356;45.638;13.764;2023-06-14T09:13:41;25.90;44.60
75738;DHT22;64356;45.638;13.764;2023-06-14T09:16:08;25.90;45.00
75738;DHT22;64356;45.638;13.764;2023-06-14T09:18:44;25.80;45.30
75738;DHT22;64356;45.638;13.764;2023-06-14T09:21:14;25.90;45.20
75738;DHT22;64356;45.638;13.764;2023-06-14T09:23:41;25.80;45.40
75738;DHT22;64356;45.638;13.764;2023-06-14T09:26:15;25.80;45.80
75738;DHT22;64356;45.638;13.764;2023-06-14T09:28:45;25.80;46.10
75738;DHT22;64356;45.638;13.764;2023-06-14T09:31:18;25.80;45.80
75738;DHT22;64356;45.638;13.764;2023-06-14T09:33:53;25.80;46.00
75738;DHT22;64356;45.638;13.764;2023-06-14T09:36:25;25.90;46.20
75738;DHT22;64356;45.638;13.764;2023-06-14T09:38:58;25.90;46.30
75738;DHT22;64356;45.638;13.764;2023-06-14T09:41:33;26.00;46.20
75738;DHT22;64356;45.638;13.764;2023-06-14T09:44:01;26.00;46.20
75738;DHT22;64356;45.638;13.764;2023-06-14T09:46:28;26.00;46.20
75738;DHT22;64356;45.638;13.764;2023-06-14T09:48:57;26.10;46.70
75738;DHT22;64356;45.638;13.764;2023-06-14T09:51:24;26.10;46.70
75738;DHT22;64356;45.638;13.764;2023-06-14T09:53:50;26.20;46.60
75738;DHT22;64356;45.638;13.764;2023-06-14T09:56:27;26.20;46.80
75738;DHT22;64356;45.638;13.764;2023-06-14T09:58:55;26.20;46.60
75738;DHT22;64356;45.638;13.764;2023-06-14T10:01:24;26.20;46.50
75738;DHT22;64356;45.638;13.764;2023-06-14T10:03:50;26.30;46.80
75738;DHT22;64356;45.638;13.764;2023-06-14T10:06:19;26.30;46.90
75738;DHT22;64356;45.638;13.764;2023-06-14T10:08:47;26.30;46.80
75738;DHT22;64356;45.638;13.764;2023-06-14T10:11:15;26.20;47.00
75738;DHT22;64356;45.638;13.764;2023-06-14T10:13:40;26.30;46.90
75738;DHT22;64356;45.638;13.764;2023-06-14T10:16:11;26.30;47.00
75738;DHT22;64356;45.638;13.764;2023-06-14T10:19:01;26.30;47.00
75738;DHT22;64356;45.638;13.764;2023-06-14T10:21:30;26.40;47.10
75738;DHT22;64356;45.638;13.764;2023-06-14T10:24:01;26.40;46.80
75738;DHT22;64356;45.638;13.764;2023-06-14T10:26:29;26.40;46.90
75738;DHT22;64356;45.638;13.764;2023-06-14T10:29:07;26.40;47.00
75738;DHT22;64356;45.638;13.764;2023-06-14T10:31:50;26.40;47.00
75738;DHT22;64356;45.638;13.764;2023-06-14T10:34:26;26.30;47.00
75738;DHT22;64356;45.638;13.764;2023-06-14T10:39:28;26.20;47.10
75738;DHT22;64356;45.638;13.764;2023-06-14T10:41:56;26.20;47.80
75738;DHT22;64356;45.638;13.764;2023-06-14T10:46:55;26.30;47.40
75738;DHT22;64356;45.638;13.764;2023-06-14T10:49:45;26.30;47.30
75738;DHT22;64356;45.638;13.764;2023-06-14T10:52:15;26.30;47.10
75738;DHT22;64356;45.638;13.764;2023-06-14T10:57:41;26.20;47.10
75738;DHT22;64356;45.638;13.764;2023-06-14T11:00:09;26.20;46.80
75738;DHT22;64356;45.638;13.764;2023-06-14T11:11:08;26.30;46.70
75738;DHT22;64356;45.638;13.764;2023-06-14T11:13:38;26.30;47.30
75738;DHT22;64356;45.638;13.764;2023-06-14T11:16:13;26.30;47.40
75738;DHT22;64356;45.638;13.764;2023-06-14T11:18:39;26.20;47.90
75738;DHT22;64356;45.638;13.764;2023-06-14T11:21:05;26.20;48.10
75738;DHT22;64356;45.638;13.764;2023-06-14T11:23:31;26.20;48.40
75738;DHT22;64356;45.638;13.764;2023-06-14T11:25:57;26.20;49.20
75738;DHT22;64356;45.638;13.764;2023-06-14T11:28:22;26.20;49.20
75738;DHT22;64356;45.638;13.764;2023-06-14T11:31:09;26.10;49.20
75738;DHT22;64356;45.638;13.764;2023-06-14T11:33:35;26.00;49.00
75738;DHT22;64356;45.638;13.764;2023-06-14T11:36:05;26.10;49.20
75738;DHT22;64356;45.638;13.764;2023-06-14T11:38:36;26.10;49.60
75738;DHT22;64356;45.638;13.764;2023-06-14T11:41:02;26.20;49.40
75738;DHT22;64356;45.638;13.764;2023-06-14T11:43:28;26.30;49.30
75738;DHT22;64356;45.638;13.764;2023-06-14T11:45:54;26.40;49.40
75738;DHT22;64356;45.638;13.764;2023-06-14T11:48:20;26.50;49.10
75738;DHT22;64356;45.638;13.764;2023-06-14T11:50:50;26.60;48.80
75738;DHT22;64356;45.638;13.764;2023-06-14T11:53:16;26.70;48.40
75738;DHT22;64356;45.638;13.764;2023-06-14T11:55:42;26.80;48.10
75738;DHT22;64356;45.638;13.764;2023-06-14T11:58:10;26.90;47.40
75738;DHT22;64356;45.638;13.764;2023-06-14T12:00:37;26.90;47.50
75738;DHT22;64356;45.638;13.764;2023-06-14T12:03:02;27.00;47.30
75738;DHT22;64356;45.638;13.764;2023-06-14T12:05:28;27.00;47.50
75738;DHT22;64356;45.638;13.764;2023-06-14T12:08:03;27.00;47.50
75738;DHT22;64356;45.638;13.764;2023-06-14T12:10:29;26.90;47.30
75738;DHT22;64356;45.638;13.764;2023-06-14T12:12:59;26.90;47.40
75738;DHT22;64356;45.638;13.764;2023-06-14T12:15:28;26.80;47.40
75738;DHT22;64356;45.638;13.764;2023-06-14T12:17:54;26.80;47.50
75738;DHT22;64356;45.638;13.764;2023-06-14T12:20:20;26.80;47.60
75738;DHT22;64356;45.638;13.764;2023-06-14T12:22:58;26.70;48.00
75738;DHT22;64356;45.638;13.764;2023-06-14T12:25:35;26.80;48.00
75738;DHT22;64356;45.638;13.764;2023-06-14T12:28:06;26.80;48.50
75738;DHT22;64356;45.638;13.764;2023-06-14T12:30:33;26.80;48.00
75738;DHT22;64356;45.638;13.764;2023-06-14T12:32:59;26.90;47.90
75738;DHT22;64356;45.638;13.764;2023-06-14T12:35:25;26.80;47.70
75738;DHT22;64356;45.638;13.764;2023-06-14T12:37:51;26.90;47.30
75738;DHT22;64356;45.638;13.764;2023-06-14T12:40:17;26.80;47.10
75738;DHT22;64356;45.638;13.764;2023-06-14T12:42:44;26.90;47.00
75738;DHT22;64356;45.638;13.764;2023-06-14T12:45:10;26.80;46.80
75738;DHT22;64356;45.638;13.764;2023-06-14T12:47:36;26.80;46.80
75738;DHT22;64356;45.638;13.764;2023-06-14T12:50:02;26.70;46.60
75738;DHT22;64356;45.638;13.764;2023-06-14T12:52:28;26.70;46.60
75738;DHT22;64356;45.638;13.764;2023-06-14T12:54:53;26.80;46.70
75738;DHT22;64356;45.638;13.764;2023-06-14T12:57:19;26.70;46.50
75738;DHT22;64356;45.638;13.764;2023-06-14T12:59:45;26.70;46.50
75738;DHT22;64356;45.638;13.764;2023-06-14T13:02:19;26.80;46.30
75738;DHT22;64356;45.638;13.764;2023-06-14T13:04:46;26.80;46.10
75738;DHT22;64356;45.638;13.764;2023-06-14T13:07:11;26.90;46.50
75738;DHT22;64356;45.638;13.764;2023-06-14T13:09:37;27.00;46.60
75738;DHT22;64356;45.638;13.764;2023-06-14T13:12:03;27.10;46.50
75738;DHT22;64356;45.638;13.764;2023-06-14T13:14:29;27.20;46.00
75738;DHT22;64356;45.638;13.764;2023-06-14T13:16:55;27.30;46.10
75738;DHT22;64356;45.638;13.764;2023-06-14T13:19:21;27.30;46.10
75738;DHT22;64356;45.638;13.764;2023-06-14T13:21:47;27.40;46.10
75738;DHT22;64356;45.638;13.764;2023-06-14T13:24:13;27.40;46.10
75738;DHT22;64356;45.638;13.764;2023-06-14T13:26:39;27.40;46.00
75738;DHT22;64356;45.638;13.764;2023-06-14T13:29:04;27.40;46.20
75738;DHT22;64356;45.638;13.764;2023-06-14T13:31:30;27.20;47.30
75738;DHT22;64356;45.638;13.764;2023-06-14T13:33:56;27.10;48.20
75738;DHT22;64356;45.638;13.764;2023-06-14T13:36:21;27.10;49.10
75738;DHT22;64356;45.638;13.764;2023-06-14T13:38:47;27.10;50.30
75738;DHT22;64356;45.638;13.764;2023-06-14T13:41:13;27.10;49.90
75738;DHT22;64356;45.638;13.764;2023-06-14T13:43:39;27.00;49.70
75738;DHT22;64356;45.638;13.764;2023-06-14T13:46:04;27.00;49.30
75738;DHT22;64356;45.638;13.764;2023-06-14T13:48:30;27.00;49.20
75738;DHT22;64356;45.638;13.764;2023-06-14T13:50:56;27.00;49.00
75738;DHT22;64356;45.638;13.764;2023-06-14T13:53:22;27.00;48.70
75738;DHT22;64356;45.638;13.764;2023-06-14T13:55:48;27.00;48.60
75738;DHT22;64356;45.638;13.764;2023-06-14T13:58:14;27.00;48.70
75738;DHT22;64356;45.638;13.764;2023-06-14T14:00:40;27.00;48.50
75738;DHT22;64356;45.638;13.764;2023-06-14T14:03:06;27.10;48.70
75738;DHT22;64356;45.638;13.764;2023-06-14T14:05:34;27.10;48.70
75738;DHT22;64356;45.638;13.764;2023-06-14T14:08:00;27.10;49.00
75738;DHT22;64356;45.638;13.764;2023-06-14T14:10:25;27.10;49.00
75738;DHT22;64356;45.638;13.764;2023-06-14T14:12:51;27.10;49.20
75738;DHT22;64356;45.638;13.764;2023-06-14T14:15:18;27.20;50.10
75738;DHT22;64356;45.638;13.764;2023-06-14T14:17:44;27.30;49.70
75738;DHT22;64356;45.638;13.764;2023-06-14T14:20:10;27.30;48.30
75738;DHT22;64356;45.638;13.764;2023-06-14T14:22:38;27.40;47.50
75738;DHT22;64356;45.638;13.764;2023-06-14T14:25:04;27.40;47.20
75738;DHT22;64356;45.638;13.764;2023-06-14T14:27:30;27.40;48.30
75738;DHT22;64356;45.638;13.764;2023-06-14T14:29:55;27.50;49.00
75738;DHT22;64356;45.638;13.764;2023-06-14T14:32:21;27.40;49.50
75738;DHT22;64356;45.638;13.764;2023-06-14T14:34:47;27.50;49.80
75738;DHT22;64356;45.638;13.764;2023-06-14T14:37:12;27.50;49.40
75738;DHT22;64356;45.638;13.764;2023-06-14T14:39:40;27.60;48.80
75738;DHT22;64356;45.638;13.764;2023-06-14T14:42:06;27.60;47.90
75738;DHT22;64356;45.638;13.764;2023-06-14T14:44:33;27.70;47.30
75738;DHT22;64356;45.638;13.764;2023-06-14T14:46:58;27.70;46.70
75738;DHT22;64356;45.638;13.764;2023-06-14T14:49:24;27.70;46.60
75738;DHT22;64356;45.638;13.764;2023-06-14T14:51:50;27.60;46.70
75738;DHT22;64356;45.638;13.764;2023-06-14T14:54:15;27.70;46.90
75738;DHT22;64356;45.638;13.764;2023-06-14T14:56:41;27.70;46.90
75738;DHT22;64356;45.638;13.764;2023-06-14T14:59:07;27.60;46.90
75738;DHT22;64356;45.638;13.764;2023-06-14T15:01:32;27.50;46.60
75738;DHT22;64356;45.638;13.764;2023-06-14T15:03:58;27.50;46.80
75738;DHT22;64356;45.638;13.764;2023-06-14T15:06:24;27.40;46.70
75738;DHT22;64356;45.638;13.764;2023-06-14T15:08:50;27.40;45.70
75738;DHT22;64356;45.638;13.764;2023-06-14T15:11:16;27.30;46.20
75738;DHT22;64356;45.638;13.764;2023-06-14T15:13:42;27.30;46.20
75738;DHT22;64356;45.638;13.764;2023-06-14T15:16:07;27.30;46.60
75738;DHT22;64356;45.638;13.764;2023-06-14T15:18:33;27.20;46.70
75738;DHT22;64356;45.638;13.764;2023-06-14T15:20:59;27.20;46.60
75738;DHT22;64356;45.638;13.764;2023-06-14T15:23:24;27.10;46.30
75738;DHT22;64356;45.638;13.764;2023-06-14T15:25:50;27.20;46.40
75738;DHT22;64356;45.638;13.764;2023-06-14T15:28:17;27.10;45.50
75738;DHT22;64356;45.638;13.764;2023-06-14T15:30:43;27.10;45.80
75738;DHT22;64356;45.638;13.764;2023-06-14T15:33:08;27.20;45.40